Time;durP1;ratioP1;P1;durP2;ratioP2;P2;SDS_P1;SDS_P2;PMS_P1;PMS_P2;Temp;Humidity;BMP_temperature;BMP_pressure;BME280_temperature;BME280_humidity;BME280_pressure;Samples;Min_cycle;Max_cycle;Signal;HPM_P1;HPM_P2
2023/06/17 00:01:32;;;;;;;6.67;6.47;;;;;;;-145.94;38.88;76339.50;5097121;28;20186;-70
2023/06/17 00:03:59;;;;;;;6.50;6.40;;;;;;;-145.94;39.09;76349.72;5097062;28;20216;-70
2023/06/17 00:06:26;;;;;;;6.23;6.03;;;;;;;-145.94;39.33;76353.78;5096707;28;20225;-70
2023/06/17 00:08:54;;;;;;;7.00;6.90;;;;;;;-145.94;39.94;76341.56;5096631;28;20605;-70
2023/06/17 00:11:22;;;;;;;7.47;7.37;;;;;;;-145.94;40.17;76359.91;5097153;28;20190;-70
2023/06/17 00:13:48;;;;;;;7.10;7.00;;;;;;;-145.94;40.55;76370.09;5096595;28;20251;-70
2023/06/17 00:16:17;;;;;;;7.20;6.90;;;;;;;-145.94;41.81;76396.59;5096514;28;20197;-71
2023/06/17 00:18:43;;;;;;;8.63;6.43;;;;;;;-145.94;41.45;76417.00;5096867;28;20704;-70
2023/06/17 00:21:10;;;;;;;7.70;7.30;;;;;;;-145.94;41.65;76423.13;5096732;28;20182;-70
2023/06/17 00:23:36;;;;;;;7.27;6.97;;;;;;;-145.94;41.88;76439.41;5096999;28;20296;-71
2023/06/17 00:26:03;;;;;;;7.10;7.00;;;;;;;-145.94;41.68;76441.47;5096871;28;20239;-71
2023/06/17 00:28:29;;;;;;;7.90;7.27;;;;;;;-145.94;41.65;76447.56;5096592;28;20171;-72
2023/06/17 00:30:55;;;;;;;6.83;6.67;;;;;;;-145.94;42.10;76445.53;5096116;28;20220;-70
2023/06/17 00:33:22;;;;;;;6.60;6.30;;;;;;;-145.94;41.69;76445.53;5096806;28;20175;-70
2023/06/17 00:35:48;;;;;;;8.10;7.83;;;;;;;-145.94;41.92;76447.56;5096672;28;20224;-72
2023/06/17 00:38:15;;;;;;;7.03;6.93;;;;;;;-145.94;42.14;76455.72;5096362;28;20247;-70
2023/06/17 00:40:41;;;;;;;7.77;7.37;;;;;;;-145.94;42.23;76463.88;5095897;28;20210;-70
2023/06/17 00:43:08;;;;;;;7.40;7.20;;;;;;;-145.94;42.12;76472.03;5077869;28;20189;-70
2023/06/17 00:45:38;;;;;;;7.77;7.57;;;;;;;-145.94;42.33;76465.94;5077922;28;20200;-71
2023/06/17 00:48:07;;;;;;;7.87;7.67;;;;;;;-145.94;42.16;76461.84;5094692;28;20713;-71
2023/06/17 00:50:36;;;;;;;8.20;7.90;;;;;;;-145.94;42.94;76465.94;5095836;28;20205;-71
2023/06/17 00:53:04;;;;;;;8.00;7.57;;;;;;;-145.94;43.76;76496.50;5095868;28;20185;-72
2023/06/17 00:55:32;;;;;;;8.40;8.00;;;;;;;-145.94;43.82;76516.91;5096101;28;20181;-71
2023/06/17 00:57:59;;;;;;;8.63;8.33;;;;;;;-145.94;43.54;76543.41;5096240;28;20248;-71
2023/06/17 01:00:25;;;;;;;8.20;7.83;;;;;;;-145.94;43.89;76545.44;5077545;28;20221;-70
2023/06/17 01:02:52;;;;;;;8.27;7.97;;;;;;;-145.94;43.83;76541.38;5095620;28;20189;-70
2023/06/17 01:05:19;;;;;;;9.37;8.93;;;;;;;-145.94;44.00;76547.50;5094347;28;20220;-70
2023/06/17 01:08:08;;;;;;;9.63;8.73;;;;;;;-145.94;44.27;76553.59;5095533;28;20182;-70
2023/06/17 01:10:59;;;;;;;7.63;7.43;;;;;;;-145.94;44.22;76574.00;5095723;28;20208;-70
2023/06/17 01:13:28;;;;;;;8.27;7.97;;;;;;;-145.94;44.57;76578.06;5095704;28;20166;-71
2023/06/17 01:15:56;;;;;;;8.00;7.57;;;;;;;-145.94;45.03;76574.00;5095438;28;20735;-71
2023/06/17 01:18:24;;;;;;;7.93;7.67;;;;;;;-145.94;44.92;76574.00;5093903;28;20213;-71
2023/06/17 01:20:53;;;;;;;7.33;7.23;;;;;;;-145.94;45.13;76576.03;5095509;28;20575;-71
2023/06/17 01:23:31;;;;;;;8.30;8.00;;;;;;;-145.94;44.87;76576.03;5077901;28;20174;-71
2023/06/17 01:25:58;;;;;;;8.23;7.63;;;;;;;-145.94;44.80;76571.97;5093989;28;20178;-71
2023/06/17 01:28:25;;;;;;;8.50;8.23;;;;;;;-145.94;44.60;76571.97;5095396;28;20186;-71
2023/06/17 01:30:56;;;;;;;8.67;8.37;;;;;;;-145.94;44.85;76569.91;5093720;28;20221;-70
2023/06/17 01:33:24;;;;;;;8.13;7.93;;;;;;;-145.94;45.27;76576.03;5077058;28;20193;-71
2023/06/17 01:36:16;;;;;;;8.23;7.50;;;;;;;-145.94;44.69;76567.88;5094954;28;20651;-71
2023/06/17 01:38:47;;;;;;;8.30;8.00;;;;;;;-145.94;44.78;76567.88;5076753;28;20198;-70
2023/06/17 01:41:17;;;;;;;8.83;8.43;;;;;;;-145.94;45.00;76569.91;5094967;28;20220;-71
2023/06/17 01:43:44;;;;;;;8.77;8.37;;;;;;;-145.94;45.90;76596.44;5076730;28;20189;-71
2023/06/17 01:46:14;;;;;;;8.63;8.23;;;;;;;-145.94;46.36;76614.78;5094828;28;20242;-71
2023/06/17 01:48:41;;;;;;;9.00;8.23;;;;;;;-145.94;46.32;76637.22;5095028;28;20185;-71
2023/06/17 01:51:08;;;;;;;9.33;8.70;;;;;;;-145.94;46.64;76637.22;5094980;28;20258;-71
2023/06/17 01:53:34;;;;;;;9.00;8.70;;;;;;;-145.94;46.57;76631.09;5094579;28;20200;-71
2023/06/17 01:56:02;;;;;;;9.00;8.37;;;;;;;-145.94;46.62;76643.31;5076453;28;20193;-71
2023/06/17 01:58:28;;;;;;;9.80;9.20;;;;;;;-145.94;46.88;76647.41;5093259;28;20205;-70
2023/06/17 02:00:55;;;;;;;9.17;8.17;;;;;;;-145.94;47.36;76669.84;5094460;28;20205;-70
2023/06/17 02:03:22;;;;;;;9.30;8.63;;;;;;;-145.94;47.59;76684.09;5094757;28;20182;-70
2023/06/17 02:05:49;;;;;;;8.67;8.37;;;;;;;-145.94;47.67;76686.16;5094431;28;20201;-70
2023/06/17 02:08:15;;;;;;;11.43;9.03;;;;;;;-145.94;47.76;76682.06;5076260;28;20635;-70
2023/06/17 02:10:42;;;;;;;9.10;8.60;;;;;;;-145.94;47.62;76667.78;5094284;28;20202;-71
2023/06/17 02:13:08;;;;;;;8.37;8.07;;;;;;;-145.94;47.70;76680.03;5094333;28;20193;-71
2023/06/17 02:15:35;;;;;;;9.13;8.27;;;;;;;-145.94;47.58;76675.94;5076114;28;20668;-71
2023/06/17 02:18:02;;;;;;;9.63;8.50;;;;;;;-145.94;47.70;76669.84;5092872;28;20692;-71
2023/06/17 02:20:28;;;;;;;8.27;8.07;;;;;;;-145.94;48.09;76692.25;5075947;28;20299;-71
2023/06/17 02:22:55;;;;;;;8.80;8.40;;;;;;;-145.94;48.44;76712.66;5094412;28;20231;-71
2023/06/17 02:25:21;;;;;;;9.30;8.47;;;;;;;-145.94;48.87;76728.97;5094326;28;20242;-71
2023/06/17 02:27:48;;;;;;;8.57;8.03;;;;;;;-145.94;48.56;76737.13;5094060;28;20188;-71
2023/06/17 02:30:14;;;;;;;8.43;8.13;;;;;;;-145.94;48.73;76739.16;5093738;28;20220;-71
2023/06/17 02:32:41;;;;;;;9.40;8.50;;;;;;;-145.94;48.28;76716.72;5075767;28;20224;-71
2023/06/17 02:35:08;;;;;;;8.20;8.00;;;;;;;-145.94;48.26;76722.84;5093882;28;20224;-71
2023/06/17 02:37:36;;;;;;;8.93;8.53;;;;;;;-145.94;48.51;76739.16;5075593;28;20242;-71
2023/06/17 02:40:06;;;;;;;8.47;7.97;;;;;;;-145.94;48.75;76767.72;5093733;28;20248;-70
2023/06/17 02:42:33;;;;;;;9.67;9.17;;;;;;;-145.94;49.17;76761.59;5094423;28;20194;-70
2023/06/17 02:44:59;;;;;;;15.80;10.17;;;;;;;-145.94;49.44;76767.72;5075543;28;20193;-70
2023/06/17 02:47:26;;;;;;;9.33;8.97;;;;;;;-145.94;49.55;76775.88;5075593;28;20202;-70
2023/06/17 02:49:52;;;;;;;8.80;8.30;;;;;;;-145.94;49.71;76775.88;5075477;28;20213;-70
2023/06/17 02:52:20;;;;;;;9.33;8.60;;;;;;;-145.94;50.10;76777.91;5075568;28;20198;-70
2023/06/17 02:54:47;;;;;;;10.27;9.00;;;;;;;-145.94;49.93;76769.75;5075428;28;20208;-70
2023/06/17 02:57:18;;;;;;;10.40;9.70;;;;;;;-145.94;49.77;76757.50;5075507;28;20268;-70
2023/06/17 02:59:45;;;;;;;9.40;8.80;;;;;;;-145.94;49.94;76761.59;5092039;28;20226;-70
2023/06/17 03:02:11;;;;;;;10.20;8.77;;;;;;;-145.94;50.24;76777.91;5093554;28;20548;-70
2023/06/17 03:04:38;;;;;;;10.97;10.10;;;;;;;-145.94;51.02;76794.22;5092568;28;20269;-70
2023/06/17 03:07:06;;;;;;;12.40;11.03;;;;;;;-145.94;51.58;76806.47;5075309;28;20195;-70
2023/06/17 03:09:32;;;;;;;10.00;9.67;;;;;;;-145.94;51.90;76808.50;5075287;28;20209;-70
2023/06/17 03:12:00;;;;;;;10.47;9.60;;;;;;;-145.94;51.87;76810.53;5075583;28;20196;-70
2023/06/17 03:14:29;;;;;;;10.57;9.87;;;;;;;-145.94;52.02;76806.47;5075215;28;20263;-71
2023/06/17 03:16:57;;;;;;;8.83;8.43;;;;;;;-145.94;52.49;76798.31;5075276;28;20207;-71
2023/06/17 03:19:27;;;;;;;10.60;9.30;;;;;;;-145.94;52.02;76782.00;5091858;28;20243;-70
2023/06/17 03:21:54;;;;;;;9.87;9.27;;;;;;;-145.94;52.19;76782.00;5092011;28;20192;-70
2023/06/17 03:24:24;;;;;;;9.27;8.80;;;;;;;-145.94;51.82;76779.94;5092048;28;20198;-70
2023/06/17 03:26:53;;;;;;;12.60;9.67;;;;;;;-145.94;52.09;76779.94;5075209;28;20541;-70
2023/06/17 03:29:20;;;;;;;10.33;9.83;;;;;;;-145.94;52.40;76775.88;5074995;28;20228;-70
2023/06/17 03:31:48;;;;;;;10.50;9.60;;;;;;;-145.94;52.21;76773.81;5075569;28;20683;-70
2023/06/17 03:34:15;;;;;;;10.93;10.20;;;;;;;-145.94;52.11;76767.72;5093470;28;20242;-70
2023/06/17 03:36:42;;;;;;;9.73;9.33;;;;;;;-145.94;51.95;76775.88;5075062;28;20217;-70
2023/06/17 03:39:09;;;;;;;10.07;9.60;;;;;;;-145.94;52.38;76782.00;5074858;28;20245;-69
2023/06/17 03:41:36;;;;;;;9.53;8.90;;;;;;;-145.94;52.50;76788.09;5074991;28;20572;-70
2023/06/17 03:44:02;;;;;;;10.07;9.30;;;;;;;-145.94;52.36;76784.03;5093052;28;20195;-70
2023/06/17 03:46:29;;;;;;;10.70;10.00;;;;;;;-145.94;52.09;76779.94;5058424;28;20217;-70
2023/06/17 03:48:57;;;;;;;11.57;10.77;;;;;;;-145.94;52.02;76775.88;5075597;28;20198;-69
2023/06/17 03:51:23;;;;;;;12.17;11.27;;;;;;;-145.94;51.99;76771.78;5074898;28;20246;-69
2023/06/17 03:53:50;;;;;;;11.93;11.03;;;;;;;-145.94;51.73;76777.91;5074878;28;20204;-69
2023/06/17 03:56:16;;;;;;;15.53;11.50;;;;;;;-145.94;52.01;76775.88;5074916;28;20224;-69
2023/06/17 03:58:43;;;;;;;10.90;10.17;;;;;;;-145.94;52.30;76782.00;5093102;28;20200;-69
2023/06/17 04:01:12;;;;;;;10.27;9.77;;;;;;;-145.94;52.72;76796.25;5092943;28;20178;-69
2023/06/17 04:03:41;;;;;;;10.03;9.27;;;;;;;-145.94;53.06;76796.25;5075152;28;20197;-69
2023/06/17 04:06:08;;;;;;;10.93;9.97;;;;;;;-145.94;52.71;76790.16;5074806;28;20201;-70
2023/06/17 04:08:35;;;;;;;10.83;10.03;;;;;;;-145.94;52.90;76786.06;5074807;28;20193;-70
2023/06/17 04:11:02;;;;;;;12.67;11.57;;;;;;;-145.94;53.01;76782.00;5092804;28;20204;-69
2023/06/17 04:13:29;;;;;;;14.20;12.87;;;;;;;-145.94;52.93;76775.88;5093109;28;20657;-70
2023/06/17 04:15:56;;;;;;;16.90;13.70;;;;;;;-145.94;53.00;76771.78;5076602;28;20193;-70
2023/06/17 04:18:25;;;;;;;14.87;13.47;;;;;;;-145.94;52.02;76755.47;5078208;28;20210;-70
2023/06/17 04:20:56;;;;;;;14.23;12.93;;;;;;;-145.94;52.21;76753.44;5096434;28;20217;-69
2023/06/17 04:23:26;;;;;;;13.97;12.20;;;;;;;-145.94;52.15;76749.34;5078538;28;20291;-70
2023/06/17 04:25:56;;;;;;;13.43;12.13;;;;;;;-145.94;52.16;76753.44;5078217;28;20189;-70
2023/06/17 04:28:23;;;;;;;14.53;12.90;;;;;;;-145.94;52.35;76751.41;5078113;28;20262;-70
2023/06/17 04:30:51;;;;;;;14.47;13.10;;;;;;;-145.94;52.66;76747.31;5077939;28;20263;-70
2023/06/17 04:33:18;;;;;;;17.60;14.57;;;;;;;-145.94;52.54;76731.00;5078355;28;20193;-70
2023/06/17 04:35:44;;;;;;;19.00;15.47;;;;;;;-145.94;52.37;76712.66;5096099;28;20667;-70
2023/06/17 04:38:11;;;;;;;16.87;14.77;;;;;;;-145.94;51.97;76708.56;5077927;28;20543;-70
2023/06/17 04:40:39;;;;;;;26.00;15.47;;;;;;;-145.94;51.96;76706.53;5077891;28;20223;-70
2023/06/17 04:43:08;;;;;;;23.43;14.27;;;;;;;-145.94;52.26;76710.63;5095397;28;20589;-70
2023/06/17 04:45:35;;;;;;;20.73;13.90;;;;;;;-145.94;52.45;76704.50;5077881;28;20190;-70
2023/06/17 04:48:05;;;;;;;27.00;14.37;;;;;;;-145.94;52.43;76684.09;5077796;28;20564;-70
2023/06/17 04:50:33;;;;;;;53.70;14.37;;;;;;;-145.94;52.37;76682.06;5077861;28;20213;-70
2023/06/17 04:53:03;;;;;;;29.53;12.50;;;;;;;-145.94;52.50;76675.94;5096058;28;20208;-70
2023/06/17 04:55:35;;;;;;;39.80;14.33;;;;;;;-145.94;52.59;76659.63;5077738;28;20277;-70
2023/06/17 04:58:04;;;;;;;34.83;14.10;;;;;;;-145.94;52.66;76647.41;5077903;28;20224;-70
2023/06/17 05:00:40;;;;;;;29.93;14.33;;;;;;;-145.94;52.37;76616.81;5094500;28;20217;-70
2023/06/17 05:03:09;;;;;;;47.70;14.20;;;;;;;-145.94;51.75;76594.38;5077794;28;20193;-70
2023/06/17 05:05:35;;;;;;;27.20;14.00;;;;;;;-145.94;52.85;76588.28;5078295;28;20204;-70
2023/06/17 05:08:03;;;;;;;27.47;13.47;;;;;;;-145.94;52.90;76582.16;5077485;28;20200;-71
2023/06/17 05:10:29;;;;;;;19.60;12.33;;;;;;;-145.94;53.77;76569.91;5077253;28;20695;-70
2023/06/17 05:12:56;;;;;;;18.77;13.50;;;;;;;-145.94;53.80;76571.97;5077247;28;20284;-71
2023/06/17 05:15:25;;;;;;;16.97;12.60;;;;;;;-145.94;53.47;76561.75;5077341;28;20599;-70
2023/06/17 05:17:51;;;;;;;19.53;11.97;;;;;;;-145.94;52.83;76555.66;5077256;28;20562;-70
2023/06/17 05:20:17;;;;;;;17.23;15.10;;;;;;;-145.94;52.37;76527.09;5077131;28;20676;-70
2023/06/17 05:22:45;;;;;;;18.03;15.57;;;;;;;-145.94;50.02;76520.97;5077497;28;20204;-70
2023/06/17 05:25:12;;;;;;;22.53;16.17;;;;;;;-145.94;49.08;76514.88;5077128;28;20686;-70
2023/06/17 05:27:38;;;;;;;17.43;15.63;;;;;;;-145.94;49.03;76504.66;5076377;28;20193;-70
2023/06/17 05:30:07;;;;;;;25.60;16.07;;;;;;;-145.94;49.26;76490.41;5076760;28;20224;-70
2023/06/17 05:32:34;;;;;;;24.33;17.40;;;;;;;-145.94;48.95;76476.13;5076846;28;20190;-70
2023/06/17 05:35:00;;;;;;;23.73;17.07;;;;;;;-145.94;48.50;76457.78;5076884;28;20729;-70
2023/06/17 05:37:28;;;;;;;22.10;15.93;;;;;;;-145.94;48.06;76449.63;5076808;28;20185;-70
2023/06/17 05:39:55;;;;;;;17.10;15.50;;;;;;;-145.94;48.01;76435.34;5076653;28;20209;-70
2023/06/17 05:42:22;;;;;;;17.97;14.20;;;;;;;-145.94;48.13;76427.19;5095178;28;20588;-70
2023/06/17 05:44:48;;;;;;;24.27;15.53;;;;;;;-145.94;48.04;76412.91;5076664;28;20190;-70
2023/06/17 05:47:15;;;;;;;15.47;13.93;;;;;;;-145.94;47.95;76402.72;5076687;28;20543;-70
2023/06/17 05:49:43;;;;;;;16.37;14.70;;;;;;;-145.94;47.78;76378.25;5076448;28;20222;-70
2023/06/17 05:52:10;;;;;;;17.23;15.47;;;;;;;-145.94;46.99;76363.97;5094742;28;20658;-70
2023/06/17 05:54:38;;;;;;;15.57;13.33;;;;;;;-145.94;47.00;76349.72;5094668;28;20186;-70
2023/06/17 05:57:05;;;;;;;17.07;15.40;;;;;;;-145.94;47.04;76347.66;5076417;28;20292;-70
2023/06/17 05:59:31;;;;;;;13.03;12.20;;;;;;;-145.94;46.41;76339.50;5076343;28;20210;-70
2023/06/17 06:01:58;;;;;;;12.80;12.07;;;;;;;-145.94;46.37;76331.34;5076400;28;20186;-70
2023/06/17 06:04:25;;;;;;;14.40;13.40;;;;;;;-145.94;46.46;76319.13;5076895;28;20197;-70
2023/06/17 06:06:52;;;;;;;13.80;12.37;;;;;;;-145.94;46.47;76317.09;5093184;28;20194;-70
2023/06/17 06:09:19;;;;;;;11.60;10.90;;;;;;;-145.94;46.48;76308.94;5094337;28;20240;-70
2023/06/17 06:11:46;;;;;;;16.73;13.50;;;;;;;-145.94;46.86;76284.47;5076256;28;20190;-70
2023/06/17 06:14:14;;;;;;;15.40;13.80;;;;;;;-145.94;46.30;76260.00;5076121;28;20190;-70
2023/06/17 06:16:44;;;;;;;13.47;12.53;;;;;;;-145.94;45.83;76243.69;5076412;28;20277;-70
2023/06/17 06:19:10;;;;;;;14.60;13.50;;;;;;;-145.94;45.62;76235.53;5075973;28;20202;-70
2023/06/17 06:21:37;;;;;;;14.03;13.00;;;;;;;-145.94;45.85;76229.41;5076121;28;20186;-70
2023/06/17 06:24:03;;;;;;;13.57;12.17;;;;;;;-145.94;45.87;76223.28;5075972;28;20194;-70
2023/06/17 06:26:34;;;;;;;13.20;12.33;;;;;;;-145.94;45.31;76213.09;5076000;28;20186;-70
2023/06/17 06:29:01;;;;;;;14.90;13.70;;;;;;;-145.94;45.06;76198.81;5075899;28;20206;-69
2023/06/17 06:31:27;;;;;;;16.03;14.00;;;;;;;-145.94;44.19;76174.38;5076082;28;20270;-71
2023/06/17 06:33:54;;;;;;;18.40;15.30;;;;;;;-145.94;44.14;76180.47;5094131;28;20178;-71
2023/06/17 06:36:21;;;;;;;14.50;13.20;;;;;;;-145.94;44.54;76172.31;5075764;28;20190;-71
2023/06/17 06:38:47;;;;;;;29.37;14.47;;;;;;;-145.94;44.36;76153.97;5075187;28;20204;-71
2023/06/17 06:41:14;;;;;;;15.57;14.17;;;;;;;-145.94;43.38;76137.66;5094288;28;20181;-71
2023/06/17 06:43:49;;;;;;;16.33;15.10;;;;;;;-145.94;42.99;76133.59;5075956;28;20300;-71
2023/06/17 06:46:18;;;;;;;19.83;15.33;;;;;;;-145.94;43.40;76125.44;5075482;28;20198;-72
2023/06/17 06:48:45;;;;;;;15.97;14.63;;;;;;;-145.94;40.48;76129.50;5076036;28;20235;-71
2023/06/17 06:51:13;;;;;;;25.77;14.10;;;;;;;-145.94;39.86;76121.34;5075527;28;20281;-72
2023/06/17 06:53:39;;;;;;;14.37;13.10;;;;;;;-145.94;40.11;76109.13;5075485;28;20218;-72
2023/06/17 06:56:06;;;;;;;12.63;11.70;;;;;;;-145.94;39.21;76098.94;5075482;28;20218;-72
2023/06/17 06:58:35;;;;;;;13.30;12.20;;;;;;;-145.94;39.28;76084.66;5092366;28;20204;-72
2023/06/17 07:01:02;;;;;;;11.60;10.70;;;;;;;-145.94;38.87;76074.47;5092083;28;20209;-72
2023/06/17 07:03:28;;;;;;;12.97;11.97;;;;;;;-145.94;38.55;76068.34;5093778;28;20548;-72
2023/06/17 07:05:55;;;;;;;12.27;11.47;;;;;;;-145.94;38.48;76062.22;5093803;28;20178;-72
2023/06/17 07:08:21;;;;;;;11.23;10.53;;;;;;;-145.94;38.65;76050.00;5075376;28;20559;-72
2023/06/17 07:10:48;;;;;;;11.40;10.57;;;;;;;-145.94;38.14;76047.97;5075193;28;20225;-72
2023/06/17 07:13:17;;;;;;;10.57;9.93;;;;;;;-145.94;38.66;76031.66;5075416;28;20190;-72
2023/06/17 07:15:45;;;;;;;9.73;9.40;;;;;;;-145.94;38.14;76035.72;5092089;28;20188;-72
2023/06/17 07:18:12;;;;;;;9.87;9.47;;;;;;;-145.94;38.04;76027.56;5075291;28;20232;-72
2023/06/17 07:20:41;;;;;;;8.40;8.20;;;;;;;-145.94;38.13;76027.56;5091969;28;20579;-72
2023/06/17 07:23:09;;;;;;;9.73;9.00;;;;;;;-145.94;37.73;76009.22;5075171;28;20197;-72
2023/06/17 07:25:36;;;;;;;10.20;9.30;;;;;;;-145.94;37.44;76001.06;5091976;28;20285;-72
2023/06/17 07:28:03;;;;;;;10.70;9.70;;;;;;;-145.94;37.13;75992.91;5093521;28;20213;-72
2023/06/17 07:30:29;;;;;;;8.90;8.63;;;;;;;-145.94;37.16;75982.72;5091610;28;20221;-72
2023/06/17 07:32:56;;;;;;;9.47;8.83;;;;;;;-145.94;36.83;75986.78;5075414;28;20228;-72
2023/06/17 07:35:24;;;;;;;9.90;8.73;;;;;;;-145.94;36.83;75980.69;5075029;28;20194;-72
2023/06/17 07:37:54;;;;;;;9.50;8.40;;;;;;;-145.94;37.34;75964.38;5075066;28;20202;-72
2023/06/17 07:40:20;;;;;;;10.43;9.63;;;;;;;-145.94;36.71;75958.25;5074983;28;20695;-73
2023/06/17 07:42:47;;;;;;;18.13;8.73;;;;;;;-145.94;35.68;75948.06;5093063;28;20190;-72
2023/06/17 07:45:14;;;;;;;9.60;9.03;;;;;;;-145.94;35.65;75937.88;5093048;28;20602;-72
2023/06/17 07:47:41;;;;;;;8.87;8.47;;;;;;;-145.94;35.13;75937.88;5093029;28;20194;-72
2023/06/17 07:50:08;;;;;;;9.17;8.40;;;;;;;-145.94;34.17;75925.63;5093540;28;20274;-73
2023/06/17 07:52:35;;;;;;;8.90;8.57;;;;;;;-145.94;35.75;75913.41;5096992;28;20224;-73
2023/06/17 07:55:02;;;;;;;9.57;9.17;;;;;;;-145.94;35.00;75911.38;5097182;28;20558;-73
2023/06/17 07:57:33;;;;;;;8.80;8.50;;;;;;;-145.94;34.45;75913.41;5097404;28;20209;-73
2023/06/17 08:00:00;;;;;;;10.00;9.30;;;;;;;-145.94;33.86;75903.22;5096897;28;20251;-72
2023/06/17 08:02:27;;;;;;;9.17;8.40;;;;;;;-145.94;34.40;75897.09;5097089;28;20532;-73
2023/06/17 08:04:54;;;;;;;11.07;8.80;;;;;;;-145.94;34.73;75886.91;5097334;28;20269;-72
2023/06/17 08:07:21;;;;;;;8.87;8.57;;;;;;;-145.94;35.30;75878.75;5096629;28;20182;-73
2023/06/17 08:09:47;;;;;;;8.00;7.60;;;;;;;-145.94;35.36;75872.63;5096716;28;20210;-73
2023/06/17 08:12:14;;;;;;;10.73;8.70;;;;;;;-145.94;34.53;75864.47;5096589;28;20182;-72
2023/06/17 08:14:40;;;;;;;8.63;8.33;;;;;;;-145.94;34.79;75862.44;5096628;28;20194;-73
2023/06/17 08:17:07;;;;;;;7.90;7.43;;;;;;;-145.94;34.62;75837.97;5097073;28;20217;-72
2023/06/17 08:19:33;;;;;;;7.90;7.40;;;;;;;-145.94;33.42;75817.59;5096719;28;20202;-71
2023/06/17 08:22:00;;;;;;;7.97;7.43;;;;;;;-145.94;34.80;75815.53;5096976;28;20667;-72
2023/06/17 08:24:27;;;;;;;11.10;7.60;;;;;;;-145.94;33.30;75811.47;5096383;28;20667;-72
2023/06/17 08:26:53;;;;;;;7.33;7.10;;;;;;;-145.94;32.50;75793.13;5096914;28;20647;-72
2023/06/17 08:29:20;;;;;;;7.23;6.93;;;;;;;-145.94;32.71;75789.03;5095999;28;20217;-71
2023/06/17 08:31:48;;;;;;;8.50;8.03;;;;;;;-145.94;32.81;75787.00;5096831;28;20177;-72
2023/06/17 08:34:15;;;;;;;7.73;7.30;;;;;;;-145.94;32.55;75762.53;5096213;28;20194;-72
2023/06/17 08:36:45;;;;;;;7.87;7.00;;;;;;;-145.94;32.68;75766.63;5096700;28;20537;-72
2023/06/17 08:39:12;;;;;;;7.13;7.03;;;;;;;-145.94;33.67;75760.50;5096069;28;20696;-72
2023/06/17 08:41:40;;;;;;;7.40;7.20;;;;;;;-145.94;31.68;75734.00;5096111;28;20186;-72
2023/06/17 08:44:10;;;;;;;6.87;6.67;;;;;;;-145.94;31.71;75727.88;5096076;28;20192;-72
2023/06/17 08:46:37;;;;;;;10.17;6.77;;;;;;;-145.94;32.38;75731.97;5096016;28;20182;-72
2023/06/17 08:49:04;;;;;;;7.53;7.00;;;;;;;-145.94;32.32;75709.53;5097341;28;20224;-71
2023/06/17 08:51:31;;;;;;;7.13;6.70;;;;;;;-145.94;31.73;75713.63;5113727;28;20201;-73
2023/06/17 08:53:58;;;;;;;6.50;6.20;;;;;;;-145.94;33.02;75709.53;5096131;28;20189;-73
2023/06/17 08:56:24;;;;;;;6.90;6.40;;;;;;;-145.94;31.91;75705.47;5112419;28;20655;-72
2023/06/17 08:58:53;;;;;;;7.40;7.10;;;;;;;-145.94;31.39;75689.16;5095769;28;20212;-71
2023/06/17 09:01:20;;;;;;;6.97;6.43;;;;;;;-145.94;31.55;75678.97;5113747;28;20204;-72
2023/06/17 09:03:53;;;;;;;8.03;7.20;;;;;;;-145.94;32.30;75670.81;5112681;28;20209;-72
2023/06/17 09:06:20;;;;;;;6.90;6.60;;;;;;;-145.94;32.18;75652.44;5109480;28;20272;-71
2023/06/17 09:08:48;;;;;;;6.67;6.43;;;;;;;-145.94;32.38;75652.44;5108093;28;20239;-72
2023/06/17 09:11:14;;;;;;;6.57;6.43;;;;;;;-145.94;31.53;75640.22;5115919;28;20201;-72
2023/06/17 09:13:41;;;;;;;7.00;6.60;;;;;;;-145.94;32.04;75644.31;5115807;28;20196;-72
2023/06/17 09:16:08;;;;;;;6.87;6.67;;;;;;;-145.94;31.84;75630.03;5115860;28;20685;-72
2023/06/17 09:18:35;;;;;;;9.50;6.87;;;;;;;-145.94;31.96;75621.88;5115761;28;20257;-73
2023/06/17 09:21:02;;;;;;;7.07;6.57;;;;;;;-145.94;31.71;75593.34;5116114;28;20201;-73
2023/06/17 09:23:29;;;;;;;6.33;5.93;;;;;;;-145.94;31.46;75597.41;5116268;28;20711;-73
2023/06/17 09:26:03;;;;;;;5.43;5.40;;;;;;;-145.94;31.96;75603.53;5115655;28;20674;-73
2023/06/17 09:28:30;;;;;;;6.80;6.60;;;;;;;-145.94;32.11;75587.22;5115600;28;20197;-73
2023/06/17 09:30:59;;;;;;;6.67;6.30;;;;;;;-145.94;31.19;75591.28;5115362;28;20217;-72
2023/06/17 09:33:27;;;;;;;6.07;5.97;;;;;;;-145.94;31.45;75579.06;5116069;28;20546;-72
2023/06/17 09:36:01;;;;;;;6.90;6.60;;;;;;;-145.94;30.99;75570.91;5115452;28;20189;-73
2023/06/17 09:38:28;;;;;;;7.07;6.83;;;;;;;-145.94;30.56;75579.06;5115369;28;20550;-73
2023/06/17 09:40:55;;;;;;;7.00;6.50;;;;;;;-145.94;30.75;75570.91;5115532;28;20201;-73
2023/06/17 09:43:25;;;;;;;5.97;5.93;;;;;;;-145.94;29.78;75564.78;5115330;28;20181;-72
2023/06/17 09:45:59;;;;;;;6.40;5.80;;;;;;;-145.94;29.65;75546.44;5115266;28;20201;-73
2023/06/17 09:48:40;;;;;;;6.53;6.23;;;;;;;-145.94;29.93;75542.38;5115499;28;20181;-73
2023/06/17 09:51:12;;;;;;;6.63;6.40;;;;;;;-145.94;29.99;75538.28;5115602;28;20540;-73
2023/06/17 09:53:38;;;;;;;6.43;5.87;;;;;;;-145.94;30.44;75515.88;5115188;28;20169;-73
2023/06/17 09:56:10;;;;;;;6.07;5.80;;;;;;;-145.94;29.99;75509.75;5115311;28;20181;-73
2023/06/17 09:58:37;;;;;;;5.97;5.47;;;;;;;-145.94;29.53;75503.63;5115353;28;20183;-73
2023/06/17 10:01:08;;;;;;;5.67;5.53;;;;;;;-145.94;28.62;75495.50;5114893;28;20216;-73
2023/06/17 10:03:35;;;;;;;5.50;5.50;;;;;;;-145.94;29.30;75493.44;5114923;28;20187;-72
2023/06/17 10:06:06;;;;;;;10.40;5.73;;;;;;;-145.94;29.08;75487.34;5115111;28;20185;-73
2023/06/17 10:08:36;;;;;;;6.10;6.00;;;;;;;-145.94;28.79;75468.97;5115424;28;20207;-72
2023/06/17 10:11:02;;;;;;;6.13;6.03;;;;;;;-145.94;28.64;75450.63;5115058;28;20579;-71
2023/06/17 10:13:35;;;;;;;6.20;5.60;;;;;;;-145.94;29.67;75436.38;5114273;28;20655;-72
2023/06/17 10:16:04;;;;;;;5.70;5.40;;;;;;;-145.94;28.03;75434.34;5115292;28;20195;-72
2023/06/17 10:18:35;;;;;;;8.60;5.80;;;;;;;-145.94;27.47;75407.84;5114800;28;20185;-72
2023/06/17 10:21:03;;;;;;;5.27;5.13;;;;;;;-145.94;26.52;75389.47;5114594;28;20205;-72
2023/06/17 10:23:32;;;;;;;5.37;5.17;;;;;;;-145.94;26.36;75387.44;5114792;28;20189;-72
2023/06/17 10:25:58;;;;;;;4.53;4.43;;;;;;;-145.94;24.91;75399.69;5115017;28;20185;-72
2023/06/17 10:28:53;;;;;;;5.30;5.20;;;;;;;-145.94;24.43;75387.44;5114390;28;20192;-71
2023/06/17 10:31:24;;;;;;;16.93;5.20;;;;;;;-145.94;25.56;75375.22;5114595;28;20575;-72
2023/06/17 10:33:54;;;;;;;5.80;5.40;;;;;;;-145.94;26.58;75373.19;5114620;28;20177;-72
2023/06/17 10:36:22;;;;;;;5.87;5.70;;;;;;;-145.94;26.54;75371.13;5114302;28;20181;-72
2023/06/17 10:38:54;;;;;;;5.03;4.97;;;;;;;-145.94;25.41;75377.25;5114173;28;20200;-71
2023/06/17 10:41:21;;;;;;;5.60;5.37;;;;;;;-145.94;26.41;75371.13;5114514;28;20178;-72
2023/06/17 10:43:49;;;;;;;8.00;4.53;;;;;;;-145.94;26.17;75342.59;5114146;28;20250;-72
2023/06/17 10:46:25;;;;;;;4.70;4.70;;;;;;;-145.94;24.76;75342.59;5114718;28;20177;-72
2023/06/17 10:48:58;;;;;;;5.10;4.90;;;;;;;-145.94;25.03;75328.34;5114248;28;20570;-71
2023/06/17 10:51:24;;;;;;;5.00;5.00;;;;;;;-145.94;25.86;75328.34;5114039;28;20189;-73
2023/06/17 10:54:09;;;;;;;4.60;4.50;;;;;;;-145.94;26.35;75342.59;5114628;28;20177;-72
2023/06/17 10:56:46;;;;;;;5.00;4.90;;;;;;;-145.94;26.17;75334.44;5114082;28;20246;-72
2023/06/17 10:59:13;;;;;;;5.30;5.30;;;;;;;-145.94;25.72;75336.50;5114274;28;20200;-72
2023/06/17 11:01:41;;;;;;;7.10;4.67;;;;;;;-145.94;26.77;75316.09;5114212;28;20180;-72
2023/06/17 11:04:07;;;;;;;4.90;4.80;;;;;;;-145.94;25.47;75318.13;5114284;28;20173;-73
2023/06/17 11:06:34;;;;;;;4.37;4.33;;;;;;;-145.94;25.08;75324.25;5114160;28;20185;-72
2023/06/17 11:09:04;;;;;;;4.93;4.83;;;;;;;-145.94;25.61;75320.19;5114001;28;20189;-71
2023/06/17 11:11:31;;;;;;;4.63;4.43;;;;;;;-145.94;25.68;75318.13;5114364;28;20536;-72
2023/06/17 11:13:57;;;;;;;8.98;4.20;;;;;;;-145.94;25.15;75289.59;5113967;28;20712;-73
2023/06/17 11:16:23;;;;;;;4.65;4.63;;;;;;;-145.94;25.17;75291.66;5114803;28;20522;-73